Allen Springs, Kentucky
Current Conditions -  °F | °C
As of 8:53 AM on Friday 28 Nov 2014 (Local Time) from KBWG Reporting Station
Clear Clear  
Wind Chill: 26°   Ceiling: Unl
Heat Index: 32°   Visibility: 10mi
Dew Point: 20°   Wind: 7mph
Humidity: 61%   Direction: 140°SE
Pressure: 30.42"   Gusts: NA
Location:  36.8592°N, 86.3531°W
Report Text: KBWG 281453Z AUTO 14006KT 10SM CLR 00/M07 A3042 RMK AO2 SLP307 T00001067 58010
Loading
Personal Weather Stations






























Interactive Weather Map New forecast layout! Learn more

10-Day Weather Forecast

Advertisements
Track Severe Weather on mobile